createdAt,value
2023-03-31T00:00:58.253Z,8.98
2023-03-31T00:06:02.093Z,8.84
2023-03-31T00:11:08.462Z,8.88
2023-03-31T00:16:11.659Z,8.83
2023-03-31T00:21:24.767Z,8.69
2023-03-31T00:26:29.662Z,8.64
2023-03-31T00:31:32.424Z,8.68
2023-03-31T00:36:36.793Z,8.66
2023-03-31T00:41:41.825Z,8.59
2023-03-31T00:46:52.287Z,8.55
2023-03-31T00:51:56.867Z,8.57
2023-03-31T00:57:03.609Z,8.68
2023-03-31T01:02:06.766Z,8.75
2023-03-31T01:07:16.935Z,8.78
2023-03-31T01:12:23.174Z,8.81
2023-03-31T01:17:29.942Z,8.92
2023-03-31T01:22:51.509Z,9.05
2023-03-31T01:28:15.701Z,9.14
2023-03-31T01:33:40.260Z,9.28
2023-03-31T01:39:05.084Z,9.36
2023-03-31T01:44:18.698Z,9.39
2023-03-31T01:49:30.158Z,9.48
2023-03-31T01:54:39.329Z,9.42
2023-03-31T01:59:52.170Z,9.34
2023-03-31T02:05:01.610Z,9.28
2023-03-31T02:10:08.685Z,9.22
2023-03-31T02:15:18.325Z,9.14
2023-03-31T02:20:22.994Z,9.06
2023-03-31T02:25:30.594Z,9.03
2023-03-31T02:30:44.471Z,9.01
2023-03-31T02:35:47.035Z,9.00
2023-03-31T02:40:49.970Z,8.95
2023-03-31T02:45:53.883Z,8.96
2023-03-31T02:51:17.578Z,8.92
2023-03-31T02:56:31.994Z,8.91
2023-03-31T03:02:01.972Z,8.91
2023-03-31T03:07:10.009Z,8.88
2023-03-31T03:12:18.881Z,8.86
2023-03-31T03:17:27.817Z,8.90
2023-03-31T03:22:30.469Z,8.96
2023-03-31T03:27:33.232Z,9.04
2023-03-31T03:32:37.309Z,9.08
2023-03-31T03:37:40.379Z,9.08
2023-03-31T03:42:43.157Z,9.08
2023-03-31T03:47:47.140Z,9.12
2023-03-31T03:52:49.782Z,9.18
2023-03-31T03:57:52.370Z,9.20
2023-03-31T04:02:56.387Z,9.22
2023-03-31T04:07:59.955Z,9.18
2023-03-31T04:13:02.981Z,9.21
2023-03-31T04:18:07.066Z,9.22
2023-03-31T04:23:10.321Z,9.18
2023-03-31T04:28:14.686Z,9.16
2023-03-31T04:33:19.021Z,9.14
2023-03-31T04:38:23.615Z,9.11
2023-03-31T04:43:26.563Z,9.10
2023-03-31T04:48:30.514Z,9.07
2023-03-31T04:53:33.675Z,9.06
2023-03-31T04:58:36.263Z,9.03
2023-03-31T05:03:41.364Z,8.97
2023-03-31T05:08:44.872Z,8.97
2023-03-31T05:13:47.697Z,8.96
2023-03-31T05:18:51.688Z,8.97
2023-03-31T05:23:54.746Z,8.97
2023-03-31T05:28:58.279Z,8.98
2023-03-31T05:34:02.261Z,8.98
2023-03-31T05:39:04.958Z,8.99
2023-03-31T05:44:07.535Z,9.00
2023-03-31T05:49:11.931Z,9.00
2023-03-31T05:54:14.874Z,9.03
2023-03-31T05:59:17.472Z,9.08
2023-03-31T06:04:21.690Z,9.07
2023-03-31T06:09:24.380Z,9.14
2023-03-31T06:14:28.273Z,9.18
2023-03-31T06:19:32.456Z,9.21
2023-03-31T06:24:35.042Z,9.23
2023-03-31T06:29:38.556Z,9.29
2023-03-31T06:34:42.328Z,9.33
2023-03-31T06:39:45.639Z,9.40
2023-03-31T06:44:48.176Z,9.45
2023-03-31T06:49:52.096Z,9.59
2023-03-31T06:54:54.664Z,9.74
2023-03-31T06:59:57.185Z,9.88
2023-03-31T07:05:01.151Z,9.87
2023-03-31T07:10:03.871Z,9.87
2023-03-31T07:15:07.864Z,9.80
2023-03-31T07:20:15.074Z,9.78
2023-03-31T07:25:18.834Z,10.05
2023-03-31T07:30:22.313Z,10.21
2023-03-31T07:35:27.349Z,10.51
2023-03-31T07:40:34.114Z,10.69
2023-03-31T07:45:37.159Z,10.79
2023-03-31T07:50:41.220Z,10.84
2023-03-31T07:55:43.767Z,10.85
2023-03-31T08:00:46.336Z,10.73
2023-03-31T08:05:52.508Z,10.70
2023-03-31T08:10:55.244Z,10.58
2023-03-31T08:15:58.908Z,10.52
2023-03-31T08:21:02.893Z,10.41
2023-03-31T08:26:16.452Z,10.41
2023-03-31T08:31:25.991Z,10.34
2023-03-31T08:36:31.235Z,10.17
2023-03-31T08:41:42.779Z,10.09
2023-03-31T08:46:45.669Z,9.88
2023-03-31T08:51:53.114Z,9.82
2023-03-31T08:56:55.842Z,9.80
2023-03-31T09:02:06.017Z,9.84
2023-03-31T09:07:17.342Z,10.05
2023-03-31T09:12:24.380Z,9.96
2023-03-31T09:17:30.374Z,9.96
2023-03-31T09:22:42.457Z,9.94
2023-03-31T09:27:47.673Z,9.82
2023-03-31T09:32:55.919Z,9.74
2023-03-31T09:38:00.628Z,9.76
2023-03-31T09:43:06.287Z,9.72
2023-03-31T09:48:15.299Z,9.76
2023-03-31T09:53:23.019Z,9.98
2023-03-31T09:58:26.203Z,10.31
2023-03-31T10:03:29.549Z,10.69
2023-03-31T10:08:34.946Z,11.55
2023-03-31T10:13:44.869Z,12.47
2023-03-31T10:18:47.518Z,13.32
2023-03-31T10:23:52.196Z,13.31
2023-03-31T10:28:55.861Z,13.17
2023-03-31T10:33:59.791Z,12.87
2023-03-31T10:39:08.301Z,12.69
2023-03-31T10:44:34.035Z,13.09
2023-03-31T10:49:40.789Z,13.49
2023-03-31T10:54:49.965Z,12.89
2023-03-31T11:00:05.717Z,12.60
2023-03-31T11:05:16.452Z,12.17
2023-03-31T11:10:38.277Z,12.36
2023-03-31T11:15:48.151Z,12.56
2023-03-31T11:20:59.060Z,12.32
2023-03-31T11:26:07.093Z,12.80
2023-03-31T11:31:28.618Z,14.03
2023-03-31T11:36:44.529Z,14.73
2023-03-31T11:41:52.232Z,14.30
2023-03-31T11:47:00.016Z,14.36
2023-03-31T11:52:07.366Z,14.02
2023-03-31T11:57:21.385Z,13.84
2023-03-31T12:02:32.501Z,13.31
2023-03-31T12:07:40.828Z,13.25
2023-03-31T12:12:48.394Z,13.79
2023-03-31T12:18:00.638Z,13.53
2023-03-31T12:23:07.376Z,13.50
2023-03-31T12:34:43.321Z,14.14
2023-03-31T12:39:56.839Z,14.12
2023-03-31T12:45:05.952Z,14.19
2023-03-31T12:50:30.611Z,13.81
2023-03-31T12:55:38.741Z,13.79
2023-03-31T13:01:05.331Z,14.21
2023-03-31T13:06:12.860Z,14.05
2023-03-31T13:11:15.519Z,14.46
2023-03-31T13:16:21.391Z,14.09
2023-03-31T13:21:25.912Z,13.87
2023-03-31T13:26:47.135Z,13.68
2023-03-31T13:32:19.133Z,13.54
2023-03-31T13:37:38.507Z,13.56
2023-03-31T13:43:10.032Z,13.81
2023-03-31T13:48:27.320Z,13.81
2023-03-31T13:53:48.327Z,13.81
2023-03-31T13:59:30.383Z,13.68
2023-03-31T14:04:58.450Z,13.51
2023-03-31T14:10:04.401Z,13.69
2023-03-31T14:15:08.457Z,13.69
2023-03-31T14:20:29.805Z,13.78
2023-03-31T14:25:45.464Z,14.11
2023-03-31T14:30:54.497Z,13.03
2023-03-31T14:36:02.640Z,12.60
2023-03-31T14:41:06.744Z,12.67
2023-03-31T14:46:10.789Z,12.51
2023-03-31T14:51:15.826Z,12.52
2023-03-31T14:56:26.388Z,12.21
2023-03-31T15:01:35.684Z,11.55
2023-03-31T15:06:39.977Z,11.15
2023-03-31T15:11:43.985Z,11.18
2023-03-31T15:16:47.013Z,11.76
2023-03-31T15:21:56.610Z,12.16
2023-03-31T15:27:04.966Z,12.16
2023-03-31T15:32:13.573Z,12.26
2023-03-31T15:37:16.392Z,12.13
2023-03-31T15:42:20.530Z,12.37
2023-03-31T15:47:25.440Z,12.30
2023-03-31T15:52:33.190Z,11.69
2023-03-31T15:57:37.349Z,11.11
2023-03-31T16:02:43.488Z,10.56
2023-03-31T16:07:47.117Z,10.53
2023-03-31T16:12:55.353Z,10.64
2023-03-31T16:18:00.775Z,10.82
2023-03-31T16:23:12.030Z,11.15
2023-03-31T16:28:19.495Z,11.19
2023-03-31T16:33:24.639Z,11.12
2023-03-31T16:38:30.445Z,11.02
2023-03-31T16:43:35.093Z,10.88
2023-03-31T16:48:37.752Z,10.79
2023-03-31T16:53:40.346Z,10.68
2023-03-31T16:58:50.666Z,10.63
2023-03-31T17:03:53.389Z,10.56
2023-03-31T17:08:56.145Z,10.47
2023-03-31T17:14:00.226Z,10.45
2023-03-31T17:19:02.836Z,10.39
2023-03-31T17:24:09.524Z,10.31
2023-03-31T17:29:15.384Z,10.22
2023-03-31T17:34:18.963Z,10.18
2023-03-31T17:39:21.585Z,10.04
2023-03-31T17:44:25.657Z,9.94
2023-03-31T17:49:28.723Z,9.93
2023-03-31T17:54:32.385Z,9.84
2023-03-31T17:59:38.455Z,9.74
2023-03-31T18:04:41.867Z,9.64
2023-03-31T18:09:44.498Z,9.52
2023-03-31T18:14:49.543Z,9.39
2023-03-31T18:19:52.138Z,9.30
2023-03-31T18:25:03.955Z,9.32
2023-03-31T18:30:09.516Z,9.29
2023-03-31T18:35:12.248Z,9.31
2023-03-31T18:40:15.465Z,9.24
2023-03-31T18:45:20.582Z,9.22
2023-03-31T18:50:23.858Z,9.19
2023-03-31T18:55:29.230Z,9.15
2023-03-31T19:00:37.117Z,9.12
2023-03-31T19:05:39.957Z,9.11
2023-03-31T19:10:42.695Z,9.09
2023-03-31T19:15:46.993Z,9.05
2023-03-31T19:20:51.938Z,9.07
2023-03-31T19:25:55.270Z,9.06
2023-03-31T19:30:59.477Z,9.07
2023-03-31T19:36:02.125Z,9.06
2023-03-31T19:41:06.018Z,9.05
2023-03-31T19:46:10.063Z,9.05
2023-03-31T19:51:12.827Z,9.05
2023-03-31T19:56:17.309Z,9.03
2023-03-31T20:01:23.729Z,9.04
2023-03-31T20:06:28.558Z,9.03
2023-03-31T20:11:32.072Z,9.02
2023-03-31T20:16:38.411Z,9.01
2023-03-31T20:21:42.711Z,9.02
2023-03-31T20:26:45.637Z,9.03
2023-03-31T20:31:50.399Z,9.04
2023-03-31T20:36:53.082Z,9.04
2023-03-31T20:41:55.757Z,9.02
2023-03-31T20:47:00.517Z,9.00
2023-03-31T20:52:04.454Z,9.02
2023-03-31T20:57:07.292Z,9.03
2023-03-31T21:02:14.194Z,9.03
2023-03-31T21:07:16.826Z,9.04
2023-03-31T21:12:20.290Z,9.00
2023-03-31T21:17:24.204Z,8.98
2023-03-31T21:22:27.410Z,8.96
2023-03-31T21:27:30.020Z,9.00
2023-03-31T21:32:36.023Z,8.99
2023-03-31T21:37:38.627Z,8.99
2023-03-31T21:42:41.495Z,8.95
2023-03-31T21:47:46.427Z,8.96
2023-03-31T21:52:49.042Z,8.92
2023-03-31T21:57:52.972Z,8.92
2023-03-31T22:03:16.009Z,8.95
2023-03-31T22:08:19.498Z,8.92
2023-03-31T22:13:23.151Z,8.89
2023-03-31T22:18:27.125Z,8.89
2023-03-31T22:23:29.695Z,8.89
2023-03-31T22:28:32.214Z,8.86
2023-03-31T22:33:36.141Z,8.87
2023-03-31T22:38:38.882Z,8.89
2023-03-31T22:43:43.813Z,8.89
2023-03-31T22:48:50.895Z,8.90
2023-03-31T22:53:54.836Z,8.88
2023-03-31T22:58:57.960Z,8.88
2023-03-31T23:04:01.958Z,8.87
2023-03-31T23:09:04.678Z,8.88
2023-03-31T23:14:07.273Z,8.87
2023-03-31T23:19:11.996Z,8.87
2023-03-31T23:24:14.603Z,8.87
2023-03-31T23:29:17.209Z,8.89
2023-03-31T23:34:21.249Z,8.91
2023-03-31T23:39:23.866Z,8.87
2023-03-31T23:44:27.077Z,8.83
2023-03-31T23:49:32.507Z,8.82
2023-03-31T23:54:35.147Z,8.77
2023-03-31T23:59:37.979Z,8.79
